ルクソール の空港の天気 - METARとTAF

ルクソール国際空港 ( HELX / LXR ) - エジプト ルクソール
飛行場実況気象(Metar)
観測時間05/27 01:00 EET (05/26 23:00 UTC)
風向・風速静穏 0m/s
視程10km以上
天気現象
なし
気温25℃
湿度32%
気圧1009hPa
METARHELX 262300Z 00000KT CAVOK 25/07 Q1009 NOSIG
過去の天気等 Google飛行場航空写真 Wunderground天気予報

過去48時間のMETAR

飛行場予報(TAF)
発表時間: 5/27 01:00 EET (5/26 23:00 UTC)
予報対象時間: 27日2時 EET ~ 28日8時 EET
風向・風速西北西 3m/s
視程10km以上
なし
TAF HELX 262300Z 2700/2806 30005KT CAVOK